sensor_id;sensor_type;location;lat;lon;timestamp;temperature;humidity
17843;DHT22;69286;48.222;16.332;2024-03-02T00:01:36;8.70;99.90
17843;DHT22;69286;48.222;16.332;2024-03-02T00:04:04;8.70;99.90
17843;DHT22;69286;48.222;16.332;2024-03-02T00:06:34;8.70;99.90
17843;DHT22;69286;48.222;16.332;2024-03-02T00:09:01;8.70;99.90
17843;DHT22;69286;48.222;16.332;2024-03-02T00:11:28;8.70;99.90
17843;DHT22;69286;48.222;16.332;2024-03-02T00:13:55;8.60;99.90
17843;DHT22;69286;48.222;16.332;2024-03-02T00:16:23;8.60;99.90
17843;DHT22;69286;48.222;16.332;2024-03-02T00:18:50;8.50;99.90
17843;DHT22;69286;48.222;16.332;2024-03-02T00:21:18;8.50;99.90
17843;DHT22;69286;48.222;16.332;2024-03-02T00:23:48;8.50;99.90
17843;DHT22;69286;48.222;16.332;2024-03-02T00:26:17;8.50;99.90
17843;DHT22;69286;48.222;16.332;2024-03-02T00:28:44;8.40;99.90
17843;DHT22;69286;48.222;16.332;2024-03-02T00:31:12;8.40;99.90
17843;DHT22;69286;48.222;16.332;2024-03-02T00:33:41;8.40;99.90
17843;DHT22;69286;48.222;16.332;2024-03-02T00:36:10;8.30;99.90
17843;DHT22;69286;48.222;16.332;2024-03-02T00:38:44;8.30;99.90
17843;DHT22;69286;48.222;16.332;2024-03-02T00:41:21;8.20;99.90
17843;DHT22;69286;48.222;16.332;2024-03-02T00:43:57;8.20;99.90
17843;DHT22;69286;48.222;16.332;2024-03-02T00:46:24;8.20;99.90
17843;DHT22;69286;48.222;16.332;2024-03-02T00:48:54;8.10;99.90
17843;DHT22;69286;48.222;16.332;2024-03-02T00:51:22;8.10;99.90
17843;DHT22;69286;48.222;16.332;2024-03-02T00:53:50;8.10;99.90
17843;DHT22;69286;48.222;16.332;2024-03-02T00:56:19;8.10;99.90
17843;DHT22;69286;48.222;16.332;2024-03-02T00:58:46;8.10;99.90
17843;DHT22;69286;48.222;16.332;2024-03-02T01:01:13;8.10;99.90
17843;DHT22;69286;48.222;16.332;2024-03-02T01:03:41;8.10;99.90
17843;DHT22;69286;48.222;16.332;2024-03-02T01:06:09;8.10;99.90
17843;DHT22;69286;48.222;16.332;2024-03-02T01:08:36;8.00;99.90
17843;DHT22;69286;48.222;16.332;2024-03-02T01:11:04;8.00;99.90
17843;DHT22;69286;48.222;16.332;2024-03-02T01:13:32;8.00;99.90
17843;DHT22;69286;48.222;16.332;2024-03-02T01:16:00;8.00;99.90
17843;DHT22;69286;48.222;16.332;2024-03-02T01:18:28;8.00;99.90
17843;DHT22;69286;48.222;16.332;2024-03-02T01:20:55;8.00;99.90
17843;DHT22;69286;48.222;16.332;2024-03-02T01:23:22;8.00;99.90
17843;DHT22;69286;48.222;16.332;2024-03-02T01:25:50;8.00;99.90
17843;DHT22;69286;48.222;16.332;2024-03-02T01:28:17;7.90;99.90
17843;DHT22;69286;48.222;16.332;2024-03-02T01:30:48;8.00;99.90
17843;DHT22;69286;48.222;16.332;2024-03-02T01:33:16;8.90;99.90
17843;DHT22;69286;48.222;16.332;2024-03-02T01:35:43;7.90;99.90
17843;DHT22;69286;48.222;16.332;2024-03-02T01:38:10;7.90;99.90
17843;DHT22;69286;48.222;16.332;2024-03-02T01:40:38;7.90;99.90
17843;DHT22;69286;48.222;16.332;2024-03-02T01:43:05;7.90;99.90
17843;DHT22;69286;48.222;16.332;2024-03-02T01:45:33;7.90;99.90
17843;DHT22;69286;48.222;16.332;2024-03-02T01:48:02;7.90;99.90
17843;DHT22;69286;48.222;16.332;2024-03-02T01:50:31;8.00;99.90
17843;DHT22;69286;48.222;16.332;2024-03-02T01:52:59;8.00;99.90
17843;DHT22;69286;48.222;16.332;2024-03-02T01:55:27;8.00;99.90
17843;DHT22;69286;48.222;16.332;2024-03-02T01:57:56;8.00;99.90
17843;DHT22;69286;48.222;16.332;2024-03-02T02:00:23;8.00;99.90
17843;DHT22;69286;48.222;16.332;2024-03-02T02:02:52;8.10;99.90
17843;DHT22;69286;48.222;16.332;2024-03-02T02:05:20;8.10;99.90
17843;DHT22;69286;48.222;16.332;2024-03-02T02:07:47;8.10;99.90
17843;DHT22;69286;48.222;16.332;2024-03-02T02:10:15;8.10;99.90
17843;DHT22;69286;48.222;16.332;2024-03-02T02:12:42;8.10;99.90
17843;DHT22;69286;48.222;16.332;2024-03-02T02:15:28;8.10;99.90
17843;DHT22;69286;48.222;16.332;2024-03-02T02:17:56;8.10;99.90
17843;DHT22;69286;48.222;16.332;2024-03-02T02:20:24;8.10;99.90
17843;DHT22;69286;48.222;16.332;2024-03-02T02:22:59;8.10;99.90
17843;DHT22;69286;48.222;16.332;2024-03-02T02:25:27;8.10;99.90
17843;DHT22;69286;48.222;16.332;2024-03-02T02:27:55;8.10;99.90
17843;DHT22;69286;48.222;16.332;2024-03-02T02:30:24;8.10;99.90
17843;DHT22;69286;48.222;16.332;2024-03-02T02:32:52;8.00;99.90
17843;DHT22;69286;48.222;16.332;2024-03-02T02:35:19;8.00;99.90
17843;DHT22;69286;48.222;16.332;2024-03-02T02:37:47;8.00;99.90
17843;DHT22;69286;48.222;16.332;2024-03-02T02:40:16;8.00;99.90
17843;DHT22;69286;48.222;16.332;2024-03-02T02:42:44;8.00;99.90
17843;DHT22;69286;48.222;16.332;2024-03-02T02:45:11;7.90;99.90
17843;DHT22;69286;48.222;16.332;2024-03-02T02:47:40;7.90;99.90
17843;DHT22;69286;48.222;16.332;2024-03-02T02:50:08;7.90;99.90
17843;DHT22;69286;48.222;16.332;2024-03-02T02:52:41;7.90;99.90
17843;DHT22;69286;48.222;16.332;2024-03-02T02:55:09;7.80;99.90
17843;DHT22;69286;48.222;16.332;2024-03-02T02:57:40;7.80;99.90
17843;DHT22;69286;48.222;16.332;2024-03-02T03:00:08;7.80;99.90
17843;DHT22;69286;48.222;16.332;2024-03-02T03:02:39;7.80;99.90
17843;DHT22;69286;48.222;16.332;2024-03-02T03:05:08;7.80;99.90
17843;DHT22;69286;48.222;16.332;2024-03-02T03:07:35;7.80;99.90
17843;DHT22;69286;48.222;16.332;2024-03-02T03:10:03;7.70;99.90
17843;DHT22;69286;48.222;16.332;2024-03-02T03:12:32;7.60;99.90
17843;DHT22;69286;48.222;16.332;2024-03-02T03:15:01;7.60;99.90
17843;DHT22;69286;48.222;16.332;2024-03-02T03:17:28;7.60;99.90
17843;DHT22;69286;48.222;16.332;2024-03-02T03:19:55;7.50;99.90
17843;DHT22;69286;48.222;16.332;2024-03-02T03:22:23;7.50;99.90
17843;DHT22;69286;48.222;16.332;2024-03-02T03:24:50;7.50;99.90
17843;DHT22;69286;48.222;16.332;2024-03-02T03:27:17;7.60;99.90
17843;DHT22;69286;48.222;16.332;2024-03-02T03:29:45;7.50;99.90
17843;DHT22;69286;48.222;16.332;2024-03-02T03:32:13;7.50;99.90
17843;DHT22;69286;48.222;16.332;2024-03-02T03:34:42;7.50;99.90
17843;DHT22;69286;48.222;16.332;2024-03-02T03:37:09;7.50;99.90
17843;DHT22;69286;48.222;16.332;2024-03-02T03:39:36;7.40;99.90
17843;DHT22;69286;48.222;16.332;2024-03-02T03:42:03;7.50;99.90
17843;DHT22;69286;48.222;16.332;2024-03-02T03:44:30;7.40;99.90
17843;DHT22;69286;48.222;16.332;2024-03-02T03:46:57;7.40;99.90
17843;DHT22;69286;48.222;16.332;2024-03-02T03:49:26;7.40;99.90
17843;DHT22;69286;48.222;16.332;2024-03-02T03:51:53;7.40;99.90
17843;DHT22;69286;48.222;16.332;2024-03-02T03:54:20;7.40;99.90
17843;DHT22;69286;48.222;16.332;2024-03-02T03:56:47;7.30;99.90
17843;DHT22;69286;48.222;16.332;2024-03-02T03:59:14;7.30;99.90
17843;DHT22;69286;48.222;16.332;2024-03-02T04:01:41;7.40;99.90
17843;DHT22;69286;48.222;16.332;2024-03-02T04:04:08;7.40;99.90
17843;DHT22;69286;48.222;16.332;2024-03-02T04:06:36;7.40;99.90
17843;DHT22;69286;48.222;16.332;2024-03-02T04:09:03;7.40;99.90
17843;DHT22;69286;48.222;16.332;2024-03-02T04:11:30;7.40;99.90
17843;DHT22;69286;48.222;16.332;2024-03-02T04:13:57;7.40;99.90
17843;DHT22;69286;48.222;16.332;2024-03-02T04:16:24;7.30;99.90
17843;DHT22;69286;48.222;16.332;2024-03-02T04:18:51;7.40;99.90
17843;DHT22;69286;48.222;16.332;2024-03-02T04:21:18;7.30;99.90
17843;DHT22;69286;48.222;16.332;2024-03-02T04:23:47;7.30;99.90
17843;DHT22;69286;48.222;16.332;2024-03-02T04:26:14;7.30;99.90
17843;DHT22;69286;48.222;16.332;2024-03-02T04:28:45;7.20;99.90
17843;DHT22;69286;48.222;16.332;2024-03-02T04:31:12;7.20;99.90
17843;DHT22;69286;48.222;16.332;2024-03-02T04:33:39;7.10;99.90
17843;DHT22;69286;48.222;16.332;2024-03-02T04:36:06;7.20;99.90
17843;DHT22;69286;48.222;16.332;2024-03-02T04:38:35;7.10;99.90
17843;DHT22;69286;48.222;16.332;2024-03-02T04:41:04;7.10;99.90
17843;DHT22;69286;48.222;16.332;2024-03-02T04:43:31;7.20;99.90
17843;DHT22;69286;48.222;16.332;2024-03-02T04:45:58;7.20;99.90
17843;DHT22;69286;48.222;16.332;2024-03-02T04:48:25;7.20;99.90
17843;DHT22;69286;48.222;16.332;2024-03-02T04:50:53;7.20;99.90
17843;DHT22;69286;48.222;16.332;2024-03-02T04:53:19;7.20;99.90
17843;DHT22;69286;48.222;16.332;2024-03-02T04:55:45;7.20;99.90
17843;DHT22;69286;48.222;16.332;2024-03-02T04:58:36;7.20;99.90
17843;DHT22;69286;48.222;16.332;2024-03-02T05:01:04;7.10;99.90
17843;DHT22;69286;48.222;16.332;2024-03-02T05:03:31;7.20;99.90
17843;DHT22;69286;48.222;16.332;2024-03-02T05:06:00;7.10;99.90
17843;DHT22;69286;48.222;16.332;2024-03-02T05:08:27;7.10;99.90
17843;DHT22;69286;48.222;16.332;2024-03-02T05:10:54;7.10;99.90
17843;DHT22;69286;48.222;16.332;2024-03-02T05:13:42;7.10;99.90
17843;DHT22;69286;48.222;16.332;2024-03-02T05:16:08;7.10;99.90
17843;DHT22;69286;48.222;16.332;2024-03-02T05:18:37;7.10;99.90
17843;DHT22;69286;48.222;16.332;2024-03-02T05:21:05;7.00;99.90
17843;DHT22;69286;48.222;16.332;2024-03-02T05:23:32;7.10;99.90
17843;DHT22;69286;48.222;16.332;2024-03-02T05:26:00;7.00;99.90
17843;DHT22;69286;48.222;16.332;2024-03-02T05:28:27;7.00;99.90
17843;DHT22;69286;48.222;16.332;2024-03-02T05:30:55;7.10;99.90
17843;DHT22;69286;48.222;16.332;2024-03-02T05:33:22;7.10;99.90
17843;DHT22;69286;48.222;16.332;2024-03-02T05:35:49;7.20;99.90
17843;DHT22;69286;48.222;16.332;2024-03-02T05:38:17;7.20;99.90
17843;DHT22;69286;48.222;16.332;2024-03-02T05:40:44;7.30;99.90
17843;DHT22;69286;48.222;16.332;2024-03-02T05:43:11;7.30;99.90
17843;DHT22;69286;48.222;16.332;2024-03-02T05:45:37;7.30;99.90
17843;DHT22;69286;48.222;16.332;2024-03-02T05:48:07;7.40;99.90
17843;DHT22;69286;48.222;16.332;2024-03-02T05:50:34;7.40;99.90
17843;DHT22;69286;48.222;16.332;2024-03-02T05:53:01;7.40;99.90
17843;DHT22;69286;48.222;16.332;2024-03-02T05:55:29;7.40;99.90
17843;DHT22;69286;48.222;16.332;2024-03-02T05:57:56;7.40;99.90
17843;DHT22;69286;48.222;16.332;2024-03-02T06:00:41;7.30;99.90
17843;DHT22;69286;48.222;16.332;2024-03-02T06:03:09;7.30;99.90
17843;DHT22;69286;48.222;16.332;2024-03-02T06:05:37;7.20;99.90
17843;DHT22;69286;48.222;16.332;2024-03-02T06:08:04;7.20;99.90
17843;DHT22;69286;48.222;16.332;2024-03-02T06:10:31;7.10;99.90
17843;DHT22;69286;48.222;16.332;2024-03-02T06:12:58;7.10;99.90
17843;DHT22;69286;48.222;16.332;2024-03-02T06:15:26;7.00;99.90
17843;DHT22;69286;48.222;16.332;2024-03-02T06:17:53;7.00;99.90
17843;DHT22;69286;48.222;16.332;2024-03-02T06:20:21;7.00;99.90
17843;DHT22;69286;48.222;16.332;2024-03-02T06:22:48;7.00;99.90
17843;DHT22;69286;48.222;16.332;2024-03-02T06:25:15;6.90;99.90
17843;DHT22;69286;48.222;16.332;2024-03-02T06:27:42;6.90;99.90
17843;DHT22;69286;48.222;16.332;2024-03-02T06:30:10;7.00;99.90
17843;DHT22;69286;48.222;16.332;2024-03-02T06:32:38;7.10;99.90
17843;DHT22;69286;48.222;16.332;2024-03-02T06:35:05;7.10;99.90
17843;DHT22;69286;48.222;16.332;2024-03-02T06:37:38;7.20;99.90
17843;DHT22;69286;48.222;16.332;2024-03-02T06:40:06;7.30;99.90
17843;DHT22;69286;48.222;16.332;2024-03-02T06:42:34;7.30;99.90
17843;DHT22;69286;48.222;16.332;2024-03-02T06:45:02;7.40;99.90
17843;DHT22;69286;48.222;16.332;2024-03-02T06:47:29;7.40;99.90
17843;DHT22;69286;48.222;16.332;2024-03-02T06:49:57;7.50;99.90
17843;DHT22;69286;48.222;16.332;2024-03-02T06:52:24;7.40;99.90
17843;DHT22;69286;48.222;16.332;2024-03-02T06:54:53;7.50;99.90
17843;DHT22;69286;48.222;16.332;2024-03-02T06:57:37;7.50;99.90
17843;DHT22;69286;48.222;16.332;2024-03-02T07:00:05;7.50;99.90
17843;DHT22;69286;48.222;16.332;2024-03-02T07:02:34;7.40;99.90
17843;DHT22;69286;48.222;16.332;2024-03-02T07:05:01;7.30;99.90
17843;DHT22;69286;48.222;16.332;2024-03-02T07:07:29;7.30;99.90
17843;DHT22;69286;48.222;16.332;2024-03-02T07:09:58;7.40;99.90
17843;DHT22;69286;48.222;16.332;2024-03-02T07:12:25;7.40;99.90
17843;DHT22;69286;48.222;16.332;2024-03-02T07:14:53;7.40;99.90
17843;DHT22;69286;48.222;16.332;2024-03-02T07:17:37;7.50;99.90
17843;DHT22;69286;48.222;16.332;2024-03-02T07:20:05;7.50;99.90
17843;DHT22;69286;48.222;16.332;2024-03-02T07:22:32;7.50;99.90
17843;DHT22;69286;48.222;16.332;2024-03-02T07:25:01;7.50;99.90
17843;DHT22;69286;48.222;16.332;2024-03-02T07:27:28;7.50;99.90
17843;DHT22;69286;48.222;16.332;2024-03-02T07:29:57;7.50;99.90
17843;DHT22;69286;48.222;16.332;2024-03-02T07:32:26;7.50;99.90
17843;DHT22;69286;48.222;16.332;2024-03-02T07:34:53;7.50;99.90
17843;DHT22;69286;48.222;16.332;2024-03-02T07:37:21;7.40;99.90
17843;DHT22;69286;48.222;16.332;2024-03-02T07:39:48;7.40;99.90
17843;DHT22;69286;48.222;16.332;2024-03-02T07:42:17;7.30;99.90
17843;DHT22;69286;48.222;16.332;2024-03-02T07:44:44;7.40;99.90
17843;DHT22;69286;48.222;16.332;2024-03-02T07:47:14;7.40;99.90
17843;DHT22;69286;48.222;16.332;2024-03-02T07:49:41;7.50;99.90
17843;DHT22;69286;48.222;16.332;2024-03-02T07:52:08;7.50;99.90
17843;DHT22;69286;48.222;16.332;2024-03-02T07:54:35;7.60;99.90
17843;DHT22;69286;48.222;16.332;2024-03-02T07:57:02;7.70;99.90
17843;DHT22;69286;48.222;16.332;2024-03-02T07:59:31;7.80;99.90
17843;DHT22;69286;48.222;16.332;2024-03-02T08:01:58;7.80;99.90
17843;DHT22;69286;48.222;16.332;2024-03-02T08:04:26;7.90;99.90
17843;DHT22;69286;48.222;16.332;2024-03-02T08:06:53;8.00;99.90
17843;DHT22;69286;48.222;16.332;2024-03-02T08:09:21;7.90;99.90
17843;DHT22;69286;48.222;16.332;2024-03-02T08:11:48;8.00;99.90
17843;DHT22;69286;48.222;16.332;2024-03-02T08:14:15;8.10;99.90
17843;DHT22;69286;48.222;16.332;2024-03-02T08:16:43;8.10;99.90
17843;DHT22;69286;48.222;16.332;2024-03-02T08:19:11;8.20;99.90
17843;DHT22;69286;48.222;16.332;2024-03-02T08:21:38;8.30;99.90
17843;DHT22;69286;48.222;16.332;2024-03-02T08:24:06;8.30;99.90
17843;DHT22;69286;48.222;16.332;2024-03-02T08:26:33;8.40;99.90
17843;DHT22;69286;48.222;16.332;2024-03-02T08:29:01;8.40;99.90
17843;DHT22;69286;48.222;16.332;2024-03-02T08:31:29;8.50;99.90
17843;DHT22;69286;48.222;16.332;2024-03-02T08:33:57;8.40;99.90
17843;DHT22;69286;48.222;16.332;2024-03-02T08:36:24;8.50;99.90
17843;DHT22;69286;48.222;16.332;2024-03-02T08:38:51;8.50;99.90
17843;DHT22;69286;48.222;16.332;2024-03-02T08:41:18;8.50;99.90
17843;DHT22;69286;48.222;16.332;2024-03-02T08:43:46;8.50;99.90
17843;DHT22;69286;48.222;16.332;2024-03-02T08:46:13;8.60;99.90
17843;DHT22;69286;48.222;16.332;2024-03-02T08:48:40;8.60;99.90
17843;DHT22;69286;48.222;16.332;2024-03-02T08:51:09;8.70;99.90
17843;DHT22;69286;48.222;16.332;2024-03-02T08:53:36;8.80;99.90
17843;DHT22;69286;48.222;16.332;2024-03-02T08:56:03;8.80;99.90
17843;DHT22;69286;48.222;16.332;2024-03-02T08:58:31;8.80;99.90
17843;DHT22;69286;48.222;16.332;2024-03-02T09:00:58;8.90;99.90
17843;DHT22;69286;48.222;16.332;2024-03-02T09:03:26;9.00;99.90
17843;DHT22;69286;48.222;16.332;2024-03-02T09:05:53;9.00;99.90
17843;DHT22;69286;48.222;16.332;2024-03-02T09:08:22;9.10;99.90
17843;DHT22;69286;48.222;16.332;2024-03-02T09:10:49;9.20;99.90
17843;DHT22;69286;48.222;16.332;2024-03-02T09:13:16;9.30;99.90
17843;DHT22;69286;48.222;16.332;2024-03-02T09:15:43;9.40;99.90
17843;DHT22;69286;48.222;16.332;2024-03-02T09:18:11;9.50;99.90
17843;DHT22;69286;48.222;16.332;2024-03-02T09:20:38;9.50;99.90
17843;DHT22;69286;48.222;16.332;2024-03-02T09:23:05;9.50;99.90
17843;DHT22;69286;48.222;16.332;2024-03-02T09:25:33;9.50;99.90
17843;DHT22;69286;48.222;16.332;2024-03-02T09:28:00;9.60;99.90
17843;DHT22;69286;48.222;16.332;2024-03-02T09:30:28;9.60;99.90
17843;DHT22;69286;48.222;16.332;2024-03-02T09:32:55;9.60;99.90
17843;DHT22;69286;48.222;16.332;2024-03-02T09:35:22;9.60;99.90
17843;DHT22;69286;48.222;16.332;2024-03-02T09:37:49;9.70;99.90
17843;DHT22;69286;48.222;16.332;2024-03-02T09:40:17;9.80;99.90
17843;DHT22;69286;48.222;16.332;2024-03-02T09:42:45;9.80;99.90
17843;DHT22;69286;48.222;16.332;2024-03-02T09:45:20;9.90;99.90
17843;DHT22;69286;48.222;16.332;2024-03-02T09:47:49;9.80;99.90
17843;DHT22;69286;48.222;16.332;2024-03-02T09:50:16;9.90;99.90
17843;DHT22;69286;48.222;16.332;2024-03-02T09:52:43;10.00;99.90
17843;DHT22;69286;48.222;16.332;2024-03-02T09:55:11;10.10;99.90
17843;DHT22;69286;48.222;16.332;2024-03-02T09:57:39;10.20;99.90
17843;DHT22;69286;48.222;16.332;2024-03-02T10:00:10;10.20;99.90
17843;DHT22;69286;48.222;16.332;2024-03-02T10:02:40;10.20;99.90
17843;DHT22;69286;48.222;16.332;2024-03-02T10:05:08;10.20;99.90
17843;DHT22;69286;48.222;16.332;2024-03-02T10:07:35;10.30;99.90
17843;DHT22;69286;48.222;16.332;2024-03-02T10:10:13;10.40;99.90
17843;DHT22;69286;48.222;16.332;2024-03-02T10:12:40;10.50;99.90
17843;DHT22;69286;48.222;16.332;2024-03-02T10:15:09;10.70;99.90
17843;DHT22;69286;48.222;16.332;2024-03-02T10:17:36;10.90;99.90
17843;DHT22;69286;48.222;16.332;2024-03-02T10:20:22;11.00;99.90
17843;DHT22;69286;48.222;16.332;2024-03-02T10:22:50;11.10;99.90
17843;DHT22;69286;48.222;16.332;2024-03-02T10:25:29;11.10;99.90
17843;DHT22;69286;48.222;16.332;2024-03-02T10:27:58;11.10;99.90
17843;DHT22;69286;48.222;16.332;2024-03-02T10:30:27;11.00;99.90
17843;DHT22;69286;48.222;16.332;2024-03-02T10:32:55;10.90;99.90
17843;DHT22;69286;48.222;16.332;2024-03-02T10:35:22;10.90;99.90
17843;DHT22;69286;48.222;16.332;2024-03-02T10:37:52;10.70;99.90
17843;DHT22;69286;48.222;16.332;2024-03-02T10:40:21;10.80;99.90
17843;DHT22;69286;48.222;16.332;2024-03-02T10:42:50;10.70;99.90
17843;DHT22;69286;48.222;16.332;2024-03-02T10:45:19;10.60;99.90
17843;DHT22;69286;48.222;16.332;2024-03-02T10:47:50;10.50;99.90
17843;DHT22;69286;48.222;16.332;2024-03-02T10:50:17;10.60;99.90
17843;DHT22;69286;48.222;16.332;2024-03-02T10:52:45;10.60;99.90
17843;DHT22;69286;48.222;16.332;2024-03-02T10:55:12;10.60;99.90
17843;DHT22;69286;48.222;16.332;2024-03-02T10:57:47;10.60;99.90
17843;DHT22;69286;48.222;16.332;2024-03-02T11:00:18;10.70;99.90
17843;DHT22;69286;48.222;16.332;2024-03-02T11:02:54;10.80;99.90
17843;DHT22;69286;48.222;16.332;2024-03-02T11:05:27;10.80;99.90
17843;DHT22;69286;48.222;16.332;2024-03-02T11:08:02;10.80;99.90
17843;DHT22;69286;48.222;16.332;2024-03-02T11:10:35;10.90;99.90
17843;DHT22;69286;48.222;16.332;2024-03-02T11:13:05;10.90;99.90
17843;DHT22;69286;48.222;16.332;2024-03-02T11:15:35;10.90;99.90
17843;DHT22;69286;48.222;16.332;2024-03-02T11:18:05;10.90;99.90
17843;DHT22;69286;48.222;16.332;2024-03-02T11:20:36;11.00;99.90
17843;DHT22;69286;48.222;16.332;2024-03-02T11:23:05;11.10;99.90
17843;DHT22;69286;48.222;16.332;2024-03-02T11:25:34;11.10;99.90
17843;DHT22;69286;48.222;16.332;2024-03-02T11:28:05;11.10;99.90
17843;DHT22;69286;48.222;16.332;2024-03-02T11:30:51;11.20;99.90
17843;DHT22;69286;48.222;16.332;2024-03-02T11:33:26;11.30;99.90
17843;DHT22;69286;48.222;16.332;2024-03-02T11:35:57;11.30;99.90
17843;DHT22;69286;48.222;16.332;2024-03-02T11:38:31;11.40;99.90
17843;DHT22;69286;48.222;16.332;2024-03-02T11:41:00;11.30;99.90
17843;DHT22;69286;48.222;16.332;2024-03-02T11:43:28;11.40;99.90
17843;DHT22;69286;48.222;16.332;2024-03-02T11:45:58;11.40;99.90
17843;DHT22;69286;48.222;16.332;2024-03-02T11:48:27;11.40;99.90
17843;DHT22;69286;48.222;16.332;2024-03-02T11:50:58;11.50;99.90
17843;DHT22;69286;48.222;16.332;2024-03-02T11:53:28;11.50;99.90
17843;DHT22;69286;48.222;16.332;2024-03-02T11:55:58;11.50;99.90
17843;DHT22;69286;48.222;16.332;2024-03-02T11:58:25;11.50;99.90
17843;DHT22;69286;48.222;16.332;2024-03-02T12:00:54;11.50;99.90
17843;DHT22;69286;48.222;16.332;2024-03-02T12:03:23;11.50;99.90
17843;DHT22;69286;48.222;16.332;2024-03-02T12:05:52;11.50;99.90
17843;DHT22;69286;48.222;16.332;2024-03-02T12:08:19;11.50;99.90
17843;DHT22;69286;48.222;16.332;2024-03-02T12:10:57;11.40;99.90
17843;DHT22;69286;48.222;16.332;2024-03-02T12:13:24;11.40;99.90
17843;DHT22;69286;48.222;16.332;2024-03-02T12:15:53;11.40;99.90
17843;DHT22;69286;48.222;16.332;2024-03-02T12:18:21;11.30;99.90
17843;DHT22;69286;48.222;16.332;2024-03-02T12:20:49;11.30;99.90
17843;DHT22;69286;48.222;16.332;2024-03-02T12:23:19;11.30;99.90
17843;DHT22;69286;48.222;16.332;2024-03-02T12:25:47;11.30;99.90
17843;DHT22;69286;48.222;16.332;2024-03-02T12:28:14;11.30;99.90
17843;DHT22;69286;48.222;16.332;2024-03-02T12:30:41;11.30;99.90
17843;DHT22;69286;48.222;16.332;2024-03-02T12:33:11;11.30;99.90
17843;DHT22;69286;48.222;16.332;2024-03-02T12:35:39;11.20;99.90
17843;DHT22;69286;48.222;16.332;2024-03-02T12:38:07;11.30;99.90
17843;DHT22;69286;48.222;16.332;2024-03-02T12:40:35;11.30;99.90
17843;DHT22;69286;48.222;16.332;2024-03-02T12:43:03;11.40;99.90
17843;DHT22;69286;48.222;16.332;2024-03-02T12:45:30;11.50;99.90
17843;DHT22;69286;48.222;16.332;2024-03-02T12:47:57;11.60;99.90
17843;DHT22;69286;48.222;16.332;2024-03-02T12:50:24;11.50;99.90
17843;DHT22;69286;48.222;16.332;2024-03-02T12:52:52;11.60;99.90
17843;DHT22;69286;48.222;16.332;2024-03-02T12:55:20;11.80;99.90
17843;DHT22;69286;48.222;16.332;2024-03-02T12:57:50;11.80;99.90
17843;DHT22;69286;48.222;16.332;2024-03-02T13:00:18;11.80;99.90
17843;DHT22;69286;48.222;16.332;2024-03-02T13:02:46;11.80;99.90
17843;DHT22;69286;48.222;16.332;2024-03-02T13:05:14;11.80;99.90
17843;DHT22;69286;48.222;16.332;2024-03-02T13:07:41;11.90;99.90
17843;DHT22;69286;48.222;16.332;2024-03-02T13:10:08;11.90;99.90
17843;DHT22;69286;48.222;16.332;2024-03-02T13:12:36;12.00;99.90
17843;DHT22;69286;48.222;16.332;2024-03-02T13:15:05;12.00;99.90
17843;DHT22;69286;48.222;16.332;2024-03-02T13:17:34;12.00;99.90
17843;DHT22;69286;48.222;16.332;2024-03-02T13:20:02;12.10;99.90
17843;DHT22;69286;48.222;16.332;2024-03-02T13:22:30;12.00;99.90
17843;DHT22;69286;48.222;16.332;2024-03-02T13:24:57;12.00;99.90
17843;DHT22;69286;48.222;16.332;2024-03-02T13:27:25;12.00;99.90
17843;DHT22;69286;48.222;16.332;2024-03-02T13:29:54;12.10;99.90
17843;DHT22;69286;48.222;16.332;2024-03-02T13:32:22;12.10;99.90
17843;DHT22;69286;48.222;16.332;2024-03-02T13:34:51;12.10;99.90
17843;DHT22;69286;48.222;16.332;2024-03-02T13:37:18;12.10;99.90
17843;DHT22;69286;48.222;16.332;2024-03-02T13:39:45;12.10;99.90
17843;DHT22;69286;48.222;16.332;2024-03-02T13:42:13;12.10;99.90
17843;DHT22;69286;48.222;16.332;2024-03-02T13:44:41;12.10;99.90
17843;DHT22;69286;48.222;16.332;2024-03-02T13:47:11;12.10;99.90
17843;DHT22;69286;48.222;16.332;2024-03-02T13:49:39;12.10;99.90
17843;DHT22;69286;48.222;16.332;2024-03-02T13:52:09;12.10;99.90
17843;DHT22;69286;48.222;16.332;2024-03-02T13:54:39;12.10;99.90
17843;DHT22;69286;48.222;16.332;2024-03-02T13:57:06;12.10;99.90
17843;DHT22;69286;48.222;16.332;2024-03-02T13:59:34;12.10;99.90
17843;DHT22;69286;48.222;16.332;2024-03-02T14:02:01;12.10;99.90
17843;DHT22;69286;48.222;16.332;2024-03-02T14:04:30;12.10;99.90
17843;DHT22;69286;48.222;16.332;2024-03-02T14:06:58;12.10;99.90
17843;DHT22;69286;48.222;16.332;2024-03-02T14:09:26;12.10;99.90
17843;DHT22;69286;48.222;16.332;2024-03-02T14:11:53;12.10;99.90
17843;DHT22;69286;48.222;16.332;2024-03-02T14:14:20;12.10;99.90
17843;DHT22;69286;48.222;16.332;2024-03-02T14:16:48;12.10;99.90
17843;DHT22;69286;48.222;16.332;2024-03-02T14:19:15;12.10;99.90
17843;DHT22;69286;48.222;16.332;2024-03-02T14:21:42;12.20;99.90
17843;DHT22;69286;48.222;16.332;2024-03-02T14:24:11;12.20;99.90
17843;DHT22;69286;48.222;16.332;2024-03-02T14:26:38;12.20;99.90
17843;DHT22;69286;48.222;16.332;2024-03-02T14:29:05;12.20;99.90
17843;DHT22;69286;48.222;16.332;2024-03-02T14:31:32;12.10;99.90
17843;DHT22;69286;48.222;16.332;2024-03-02T14:33:59;12.10;99.90
17843;DHT22;69286;48.222;16.332;2024-03-02T14:36:27;12.10;99.90
17843;DHT22;69286;48.222;16.332;2024-03-02T14:38:54;12.10;99.90
17843;DHT22;69286;48.222;16.332;2024-03-02T14:41:23;11.90;99.90
17843;DHT22;69286;48.222;16.332;2024-03-02T14:43:51;11.90;99.90
17843;DHT22;69286;48.222;16.332;2024-03-02T14:46:18;11.90;99.90
17843;DHT22;69286;48.222;16.332;2024-03-02T14:48:46;12.00;99.90
17843;DHT22;69286;48.222;16.332;2024-03-02T14:51:13;12.00;99.90
17843;DHT22;69286;48.222;16.332;2024-03-02T14:53:40;11.90;99.90
17843;DHT22;69286;48.222;16.332;2024-03-02T14:56:07;11.80;99.90
17843;DHT22;69286;48.222;16.332;2024-03-02T14:58:36;11.80;99.90
17843;DHT22;69286;48.222;16.332;2024-03-02T15:01:04;11.80;99.90
17843;DHT22;69286;48.222;16.332;2024-03-02T15:03:32;11.70;99.90
17843;DHT22;69286;48.222;16.332;2024-03-02T15:05:59;11.70;99.90
17843;DHT22;69286;48.222;16.332;2024-03-02T15:08:26;11.60;99.90
17843;DHT22;69286;48.222;16.332;2024-03-02T15:10:53;11.60;99.90
17843;DHT22;69286;48.222;16.332;2024-03-02T15:13:23;11.50;99.90
17843;DHT22;69286;48.222;16.332;2024-03-02T15:15:52;11.60;99.90
17843;DHT22;69286;48.222;16.332;2024-03-02T15:18:19;11.60;99.90
17843;DHT22;69286;48.222;16.332;2024-03-02T15:20:46;11.60;99.90
17843;DHT22;69286;48.222;16.332;2024-03-02T15:23:14;11.60;99.90
17843;DHT22;69286;48.222;16.332;2024-03-02T15:25:41;11.60;99.90
17843;DHT22;69286;48.222;16.332;2024-03-02T15:28:08;11.50;99.90
17843;DHT22;69286;48.222;16.332;2024-03-02T15:30:35;11.50;99.90
17843;DHT22;69286;48.222;16.332;2024-03-02T15:33:04;11.50;99.90